sensor_id;sensor_type;location;lat;lon;timestamp;temperature;humidity
20162;DHT22;51382;53.180;15.414;2023-03-20T00:13:05;9.70;99.90
20162;DHT22;51382;53.180;15.414;2023-03-20T00:28:27;9.50;99.90
20162;DHT22;51382;53.180;15.414;2023-03-20T00:43:46;9.50;99.90
20162;DHT22;51382;53.180;15.414;2023-03-20T00:58:53;9.90;99.90
20162;DHT22;51382;53.180;15.414;2023-03-20T01:14:05;9.90;99.90
20162;DHT22;51382;53.180;15.414;2023-03-20T01:29:25;9.90;99.90
20162;DHT22;51382;53.180;15.414;2023-03-20T01:44:37;9.50;99.90
20162;DHT22;51382;53.180;15.414;2023-03-20T01:59:45;9.20;99.90
20162;DHT22;51382;53.180;15.414;2023-03-20T02:14:59;8.90;99.90
20162;DHT22;51382;53.180;15.414;2023-03-20T02:46:02;8.20;99.90
20162;DHT22;51382;53.180;15.414;2023-03-20T03:01:21;8.30;99.90
20162;DHT22;51382;53.180;15.414;2023-03-20T03:16:40;8.50;99.90
20162;DHT22;51382;53.180;15.414;2023-03-20T03:31:53;8.20;99.90
20162;DHT22;51382;53.180;15.414;2023-03-20T03:47:01;7.80;99.90
20162;DHT22;51382;53.180;15.414;2023-03-20T04:02:15;8.10;99.90
20162;DHT22;51382;53.180;15.414;2023-03-20T04:17:32;8.20;99.90
20162;DHT22;51382;53.180;15.414;2023-03-20T04:32:44;7.70;99.90
20162;DHT22;51382;53.180;15.414;2023-03-20T04:48:02;7.80;99.90
20162;DHT22;51382;53.180;15.414;2023-03-20T05:03:15;7.90;99.90
20162;DHT22;51382;53.180;15.414;2023-03-20T05:18:27;8.10;99.90
20162;DHT22;51382;53.180;15.414;2023-03-20T05:34:08;8.30;99.90
20162;DHT22;51382;53.180;15.414;2023-03-20T05:49:32;8.70;99.90
20162;DHT22;51382;53.180;15.414;2023-03-20T06:04:53;8.80;99.90
20162;DHT22;51382;53.180;15.414;2023-03-20T06:20:11;9.00;99.90
20162;DHT22;51382;53.180;15.414;2023-03-20T06:35:23;9.20;99.90
20162;DHT22;51382;53.180;15.414;2023-03-20T06:50:38;13.90;99.90
20162;DHT22;51382;53.180;15.414;2023-03-20T07:05:51;14.70;99.90
20162;DHT22;51382;53.180;15.414;2023-03-20T07:21:06;16.60;99.90
20162;DHT22;51382;53.180;15.414;2023-03-20T07:36:18;13.20;99.90
20162;DHT22;51382;53.180;15.414;2023-03-20T07:51:31;11.40;99.90
20162;DHT22;51382;53.180;15.414;2023-03-20T08:06:43;11.30;99.90
20162;DHT22;51382;53.180;15.414;2023-03-20T08:21:54;10.80;99.90
20162;DHT22;51382;53.180;15.414;2023-03-20T08:37:06;10.30;99.90
20162;DHT22;51382;53.180;15.414;2023-03-20T08:52:17;10.00;99.90
20162;DHT22;51382;53.180;15.414;2023-03-20T09:07:28;9.50;99.90
20162;DHT22;51382;53.180;15.414;2023-03-20T09:22:39;9.20;99.90
20162;DHT22;51382;53.180;15.414;2023-03-20T09:37:52;9.30;99.90
20162;DHT22;51382;53.180;15.414;2023-03-20T09:53:05;8.90;99.90
20162;DHT22;51382;53.180;15.414;2023-03-20T10:08:20;9.20;99.90
20162;DHT22;51382;53.180;15.414;2023-03-20T10:23:35;9.60;99.90
20162;DHT22;51382;53.180;15.414;2023-03-20T10:38:51;10.10;99.90
20162;DHT22;51382;53.180;15.414;2023-03-20T10:54:09;10.30;99.90
20162;DHT22;51382;53.180;15.414;2023-03-20T11:09:31;10.90;99.90
20162;DHT22;51382;53.180;15.414;2023-03-20T11:24:43;10.90;99.90
20162;DHT22;51382;53.180;15.414;2023-03-20T11:39:59;10.50;99.90
20162;DHT22;51382;53.180;15.414;2023-03-20T11:55:25;10.30;99.90
20162;DHT22;51382;53.180;15.414;2023-03-20T12:10:40;10.60;99.90
20162;DHT22;51382;53.180;15.414;2023-03-20T12:25:54;11.30;99.90
20162;DHT22;51382;53.180;15.414;2023-03-20T12:41:11;11.70;99.90
20162;DHT22;51382;53.180;15.414;2023-03-20T12:56:27;11.40;99.90
20162;DHT22;51382;53.180;15.414;2023-03-20T13:11:53;11.50;99.90
20162;DHT22;51382;53.180;15.414;2023-03-20T13:27:11;11.70;99.90
20162;DHT22;51382;53.180;15.414;2023-03-20T13:42:29;11.40;99.90
20162;DHT22;51382;53.180;15.414;2023-03-20T13:57:56;11.50;99.90
20162;DHT22;51382;53.180;15.414;2023-03-20T14:13:12;11.10;99.90
20162;DHT22;51382;53.180;15.414;2023-03-20T14:28:26;10.50;99.90
20162;DHT22;51382;53.180;15.414;2023-03-20T14:43:41;10.00;99.90
20162;DHT22;51382;53.180;15.414;2023-03-20T14:59:02;10.10;99.90
20162;DHT22;51382;53.180;15.414;2023-03-20T15:14:17;10.00;99.90
20162;DHT22;51382;53.180;15.414;2023-03-20T15:29:33;10.00;99.90
20162;DHT22;51382;53.180;15.414;2023-03-20T15:44:45;10.40;99.90
20162;DHT22;51382;53.180;15.414;2023-03-20T15:59:59;10.20;99.90
20162;DHT22;51382;53.180;15.414;2023-03-20T16:15:13;10.00;99.90
20162;DHT22;51382;53.180;15.414;2023-03-20T16:30:29;9.80;99.90
20162;DHT22;51382;53.180;15.414;2023-03-20T16:45:43;9.70;99.90
20162;DHT22;51382;53.180;15.414;2023-03-20T17:00:59;9.50;99.90
20162;DHT22;51382;53.180;15.414;2023-03-20T17:16:15;9.30;99.90
20162;DHT22;51382;53.180;15.414;2023-03-20T17:31:28;9.30;99.90
20162;DHT22;51382;53.180;15.414;2023-03-20T17:46:40;9.10;99.90
20162;DHT22;51382;53.180;15.414;2023-03-20T18:01:51;9.10;99.90
20162;DHT22;51382;53.180;15.414;2023-03-20T18:16:58;8.90;99.90
20162;DHT22;51382;53.180;15.414;2023-03-20T18:32:11;8.70;99.90
20162;DHT22;51382;53.180;15.414;2023-03-20T18:47:23;8.50;99.90
20162;DHT22;51382;53.180;15.414;2023-03-20T19:02:29;8.60;99.90
20162;DHT22;51382;53.180;15.414;2023-03-20T19:17:41;8.60;99.90
20162;DHT22;51382;53.180;15.414;2023-03-20T19:32:53;8.50;99.90
20162;DHT22;51382;53.180;15.414;2023-03-20T19:48:09;8.50;99.90
20162;DHT22;51382;53.180;15.414;2023-03-20T20:03:24;8.50;99.90
20162;DHT22;51382;53.180;15.414;2023-03-20T20:18:36;8.40;99.90
20162;DHT22;51382;53.180;15.414;2023-03-20T20:33:47;7.70;99.90
20162;DHT22;51382;53.180;15.414;2023-03-20T20:48:58;7.40;99.90
20162;DHT22;51382;53.180;15.414;2023-03-20T21:04:11;7.40;99.90
20162;DHT22;51382;53.180;15.414;2023-03-20T21:19:23;7.50;99.90
20162;DHT22;51382;53.180;15.414;2023-03-20T21:34:34;7.70;99.90
20162;DHT22;51382;53.180;15.414;2023-03-20T21:49:46;8.10;99.90
20162;DHT22;51382;53.180;15.414;2023-03-20T22:04:59;7.40;99.90
20162;DHT22;51382;53.180;15.414;2023-03-20T22:20:12;7.20;99.90
20162;DHT22;51382;53.180;15.414;2023-03-20T22:35:24;7.40;99.90
20162;DHT22;51382;53.180;15.414;2023-03-20T22:50:35;7.50;99.90
20162;DHT22;51382;53.180;15.414;2023-03-20T23:05:46;7.60;99.90
20162;DHT22;51382;53.180;15.414;2023-03-20T23:20:58;7.60;99.90
20162;DHT22;51382;53.180;15.414;2023-03-20T23:36:10;7.50;99.90
20162;DHT22;51382;53.180;15.414;2023-03-20T23:51:22;7.60;99.90
